Impacts METAR Board
IDs:

KSFO - San Francisco Intl, CA, US

Updated at: 1600 UTC 20 Aug 2019
Potential Impact None Slight Moderate High
Time 20/04Z 20/05Z 20/06Z 20/07Z 20/08Z 20/09Z 20/10Z 20/11Z 20/12Z 20/13Z 20/14Z 20/15Z 20/16Z
Temp61 62 63 63 64 65 64 64 64 63 65 65 65
Dewpt54 55 55 55 55 55 56 55 55 55 55 55 55
Altim29.97 29.98 29.98 29.98 29.98 29.99 29.99 29.99 29.99 29.99 30.01 30.02 30.03
VIS10 10 10 10 10 10 10 10 10 10 10 10 10
CIG-- -- -- 14 16 17 21 21 18 14 14 17 17
CoverSCTFEWFEWBKNBKNBKNBKNBKNBKNBKNOVCOVCOVC
FltCatVFRVFRVFRMVFRMVFRMVFRMVFRMVFRMVFRMVFRMVFRMVFRMVFR
WX--------------------------
WDir270250260260270260270270260260270280270
WSpd10 9 8 11 13 11 10 9 7 9 11 8 10
WGst-- 17 -- -- -- -- -- -- -- -- -- -- --
Raw hourly METARs
KSFO 200356Z 27010KT 10SM FEW010 SCT014 16/12 A2997 RMK AO2 SLP149 T01610122
KSFO 200456Z 25009G17KT 10SM FEW014 17/13 A2998 RMK AO2 SLP151 T01670128
KSFO 200556Z 26008KT 10SM FEW014 17/13 A2998 RMK AO2 SLP151 T01720128 10211 20161 50007
KSFO 200656Z 26011KT 10SM BKN014 17/13 A2998 RMK AO2 SLP152 T01720128
KSFO 200756Z 27013KT 10SM BKN016 18/13 A2998 RMK AO2 SLP153 T01780128 402170144
KSFO 200856Z 26011KT 10SM BKN017 18/13 A2999 RMK AO2 SLP155 T01830128 53003
KSFO 200956Z 27010KT 10SM BKN021 18/13 A2999 RMK AO2 SLP154 T01780133
KSFO 201056Z 27009KT 10SM BKN021 18/13 A2999 RMK AO2 SLP154 T01780128
KSFO 201156Z 26007KT 10SM BKN018 18/13 A2999 RMK AO2 SLP155 T01780128 10183 20172 55000
KSFO 201303Z 26009KT 10SM BKN014 17/13 A2999 RMK AO2 T01720128
KSFO 201356Z 27011KT 10SM FEW008 OVC014 18/13 A3001 RMK AO2 SLP163 T01830128
KSFO 201456Z 28008KT 10SM FEW008 OVC017 18/13 A3002 RMK AO2 SLP166 T01830128 53011
KSFO 201556Z 27010KT 10SM FEW008 OVC017 18/13 A3003 RMK AO2 SLP170 T01830128



Page loaded:  16:23 UTC  |   09:23 AM Pacific  |   10:23 AM Mountain  |   11:23 AM Central  |   12:23 PM Eastern

 

ADVISORIES

FORECASTS

FORECASTS

OBSERVATIONS

USER TOOLS

ABOUT US